sensor_id;sensor_type;location;lat;lon;timestamp;pressure;altitude;pressure_sealevel;temperature;humidity
10652;BME280;5374;42.742;23.266;2023-02-01T00:02:17;95548.09;;;1.57;100.00
10652;BME280;5374;42.742;23.266;2023-02-01T00:05:09;95557.16;;;1.61;100.00
10652;BME280;5374;42.742;23.266;2023-02-01T00:07:57;95558.97;;;1.60;100.00
10652;BME280;5374;42.742;23.266;2023-02-01T00:10:44;95559.38;;;1.57;100.00
10652;BME280;5374;42.742;23.266;2023-02-01T00:13:32;95563.00;;;1.63;100.00
10652;BME280;5374;42.742;23.266;2023-02-01T00:16:21;95561.81;;;1.65;100.00
10652;BME280;5374;42.742;23.266;2023-02-01T00:19:12;95560.63;;;1.68;100.00
10652;BME280;5374;42.742;23.266;2023-02-01T00:22:01;95554.41;;;1.69;100.00
10652;BME280;5374;42.742;23.266;2023-02-01T00:24:48;95541.50;;;1.67;100.00
10652;BME280;5374;42.742;23.266;2023-02-01T00:27:35;95547.34;;;1.69;100.00
10652;BME280;5374;42.742;23.266;2023-02-01T00:30:23;95554.25;;;1.77;100.00
10652;BME280;5374;42.742;23.266;2023-02-01T00:33:10;95559.50;;;1.77;100.00
10652;BME280;5374;42.742;23.266;2023-02-01T00:35:57;95553.06;;;1.80;100.00
10652;BME280;5374;42.742;23.266;2023-02-01T00:38:46;95539.31;;;1.71;100.00
10652;BME280;5374;42.742;23.266;2023-02-01T00:41:33;95542.97;;;1.77;100.00
10652;BME280;5374;42.742;23.266;2023-02-01T00:44:21;95544.97;;;1.75;100.00
10652;BME280;5374;42.742;23.266;2023-02-01T00:47:08;95547.53;;;1.68;100.00
10652;BME280;5374;42.742;23.266;2023-02-01T00:49:57;95507.75;;;1.45;100.00
10652;BME280;5374;42.742;23.266;2023-02-01T00:52:44;95544.75;;;1.69;100.00
10652;BME280;5374;42.742;23.266;2023-02-01T00:55:33;95537.06;;;1.68;100.00
10652;BME280;5374;42.742;23.266;2023-02-01T00:58:21;95542.94;;;1.70;100.00
10652;BME280;5374;42.742;23.266;2023-02-01T01:01:12;95541.69;;;1.66;100.00
10652;BME280;5374;42.742;23.266;2023-02-01T01:04:01;95532.22;;;1.65;100.00
10652;BME280;5374;42.742;23.266;2023-02-01T01:06:49;95529.53;;;1.52;100.00
10652;BME280;5374;42.742;23.266;2023-02-01T01:09:36;95541.69;;;1.66;100.00
10652;BME280;5374;42.742;23.266;2023-02-01T01:12:24;95533.22;;;1.64;100.00
10652;BME280;5374;42.742;23.266;2023-02-01T01:15:12;95533.84;;;1.66;100.00
10652;BME280;5374;42.742;23.266;2023-02-01T01:17:59;95535.88;;;1.70;100.00
10652;BME280;5374;42.742;23.266;2023-02-01T01:20:47;95524.38;;;1.65;100.00
10652;BME280;5374;42.742;23.266;2023-02-01T01:23:34;95508.59;;;1.52;100.00
10652;BME280;5374;42.742;23.266;2023-02-01T01:26:23;95537.50;;;1.71;100.00
10652;BME280;5374;42.742;23.266;2023-02-01T01:29:12;95541.69;;;1.66;100.00
10652;BME280;5374;42.742;23.266;2023-02-01T01:31:59;95540.06;;;1.65;100.00
10652;BME280;5374;42.742;23.266;2023-02-01T01:34:46;95544.69;;;1.63;100.00
10652;BME280;5374;42.742;23.266;2023-02-01T01:37:33;95542.84;;;1.57;100.00
10652;BME280;5374;42.742;23.266;2023-02-01T01:40:23;95551.47;;;1.51;100.00
10652;BME280;5374;42.742;23.266;2023-02-01T01:43:13;95551.16;;;1.39;100.00
10652;BME280;5374;42.742;23.266;2023-02-01T01:46:02;95543.69;;;1.36;100.00
10652;BME280;5374;42.742;23.266;2023-02-01T01:48:53;95543.91;;;1.34;100.00
10652;BME280;5374;42.742;23.266;2023-02-01T01:51:45;95549.13;;;1.34;100.00
10652;BME280;5374;42.742;23.266;2023-02-01T01:54:34;95546.28;;;1.29;100.00
10652;BME280;5374;42.742;23.266;2023-02-01T01:57:27;95541.41;;;1.26;100.00
10652;BME280;5374;42.742;23.266;2023-02-01T02:00:18;95545.66;;;1.27;100.00
10652;BME280;5374;42.742;23.266;2023-02-01T02:03:13;95545.84;;;1.26;100.00
10652;BME280;5374;42.742;23.266;2023-02-01T02:06:03;95533.31;;;1.21;100.00
10652;BME280;5374;42.742;23.266;2023-02-01T02:08:53;95544.03;;;1.26;100.00
10652;BME280;5374;42.742;23.266;2023-02-01T02:11:40;95517.34;;;1.10;100.00
10652;BME280;5374;42.742;23.266;2023-02-01T02:14:28;95517.16;;;1.11;100.00
10652;BME280;5374;42.742;23.266;2023-02-01T02:17:30;95517.03;;;0.98;100.00
10652;BME280;5374;42.742;23.266;2023-02-01T02:20:43;95549.94;;;1.14;100.00
10652;BME280;5374;42.742;23.266;2023-02-01T02:23:59;95529.81;;;0.86;100.00
10652;BME280;5374;42.742;23.266;2023-02-01T02:27:02;95547.59;;;0.97;100.00
10652;BME280;5374;42.742;23.266;2023-02-01T02:30:14;95547.97;;;0.94;100.00
10652;BME280;5374;42.742;23.266;2023-02-01T02:36:37;95513.94;;;0.66;100.00
10652;BME280;5374;42.742;23.266;2023-02-01T02:39:38;95537.03;;;0.84;100.00
10652;BME280;5374;42.742;23.266;2023-02-01T02:42:29;95538.94;;;0.76;100.00
10652;BME280;5374;42.742;23.266;2023-02-01T02:45:40;95532.53;;;0.78;100.00
10652;BME280;5374;42.742;23.266;2023-02-01T02:48:51;95553.44;;;0.99;100.00
10652;BME280;5374;42.742;23.266;2023-02-01T02:51:43;95561.22;;;0.93;100.00
10652;BME280;5374;42.742;23.266;2023-02-01T02:54:50;95549.28;;;0.84;100.00
10652;BME280;5374;42.742;23.266;2023-02-01T02:57:41;95545.13;;;0.89;100.00
10652;BME280;5374;42.742;23.266;2023-02-01T03:00:48;95548.41;;;0.98;100.00
10652;BME280;5374;42.742;23.266;2023-02-01T03:03:55;95542.81;;;1.01;100.00
10652;BME280;5374;42.742;23.266;2023-02-01T03:06:54;95554.63;;;0.97;100.00
10652;BME280;5374;42.742;23.266;2023-02-01T03:09:45;95566.06;;;0.96;100.00
10652;BME280;5374;42.742;23.266;2023-02-01T03:12:36;95567.69;;;0.97;100.00
10652;BME280;5374;42.742;23.266;2023-02-01T03:15:53;95569.75;;;1.01;100.00
10652;BME280;5374;42.742;23.266;2023-02-01T03:18:49;95571.69;;;0.93;100.00
10652;BME280;5374;42.742;23.266;2023-02-01T03:21:41;95564.09;;;0.98;100.00
10652;BME280;5374;42.742;23.266;2023-02-01T03:24:32;95566.06;;;0.96;100.00
10652;BME280;5374;42.742;23.266;2023-02-01T03:27:24;95566.88;;;0.96;100.00
10652;BME280;5374;42.742;23.266;2023-02-01T03:30:16;95575.97;;;1.00;100.00
10652;BME280;5374;42.742;23.266;2023-02-01T03:33:08;95569.25;;;0.91;100.00
10652;BME280;5374;42.742;23.266;2023-02-01T03:36:05;95576.06;;;1.07;100.00
10652;BME280;5374;42.742;23.266;2023-02-01T03:39:03;95576.69;;;1.09;100.00
10652;BME280;5374;42.742;23.266;2023-02-01T03:41:54;95572.47;;;1.15;100.00
10652;BME280;5374;42.742;23.266;2023-02-01T03:44:47;95561.72;;;1.24;100.00
10652;BME280;5374;42.742;23.266;2023-02-01T03:47:39;95552.88;;;1.25;100.00
10652;BME280;5374;42.742;23.266;2023-02-01T03:50:28;95537.31;;;1.17;100.00
10652;BME280;5374;42.742;23.266;2023-02-01T03:53:20;95534.88;;;1.16;100.00
10652;BME280;5374;42.742;23.266;2023-02-01T03:56:11;95567.22;;;1.36;100.00
10652;BME280;5374;42.742;23.266;2023-02-01T03:58:58;95575.69;;;1.38;100.00
10652;BME280;5374;42.742;23.266;2023-02-01T04:01:45;95568.00;;;1.30;100.00
10652;BME280;5374;42.742;23.266;2023-02-01T04:04:33;95573.53;;;1.42;100.00
10652;BME280;5374;42.742;23.266;2023-02-01T04:07:21;95547.53;;;1.33;100.00
10652;BME280;5374;42.742;23.266;2023-02-01T04:10:10;95574.75;;;1.46;100.00
10652;BME280;5374;42.742;23.266;2023-02-01T04:12:59;95577.00;;;1.49;100.00
10652;BME280;5374;42.742;23.266;2023-02-01T04:15:47;95572.78;;;1.48;100.00
10652;BME280;5374;42.742;23.266;2023-02-01T04:18:35;95583.03;;;1.49;100.00
10652;BME280;5374;42.742;23.266;2023-02-01T04:21:22;95583.72;;;1.58;100.00
10652;BME280;5374;42.742;23.266;2023-02-01T04:24:09;95571.78;;;1.49;100.00
10652;BME280;5374;42.742;23.266;2023-02-01T04:26:57;95592.78;;;1.62;100.00
10652;BME280;5374;42.742;23.266;2023-02-01T04:29:45;95566.16;;;1.52;100.00
10652;BME280;5374;42.742;23.266;2023-02-01T04:32:32;95546.41;;;1.49;100.00
10652;BME280;5374;42.742;23.266;2023-02-01T04:35:20;95572.97;;;1.74;100.00
10652;BME280;5374;42.742;23.266;2023-02-01T04:38:10;95574.41;;;1.77;100.00
10652;BME280;5374;42.742;23.266;2023-02-01T04:40:57;95580.19;;;1.72;100.00
10652;BME280;5374;42.742;23.266;2023-02-01T04:43:45;95585.06;;;1.75;100.00
10652;BME280;5374;42.742;23.266;2023-02-01T04:46:33;95547.69;;;1.60;100.00
10652;BME280;5374;42.742;23.266;2023-02-01T04:49:21;95585.50;;;1.85;100.00
10652;BME280;5374;42.742;23.266;2023-02-01T04:52:09;95579.00;;;1.75;100.00
10652;BME280;5374;42.742;23.266;2023-02-01T04:54:58;95574.81;;;1.80;100.00
10652;BME280;5374;42.742;23.266;2023-02-01T04:57:47;95594.59;;;1.89;100.00
10652;BME280;5374;42.742;23.266;2023-02-01T05:00:35;95571.53;;;1.71;100.00
10652;BME280;5374;42.742;23.266;2023-02-01T05:03:23;95603.44;;;1.88;100.00
10652;BME280;5374;42.742;23.266;2023-02-01T05:06:11;95607.41;;;1.78;100.00
10652;BME280;5374;42.742;23.266;2023-02-01T05:08:58;95604.81;;;1.78;100.00
10652;BME280;5374;42.742;23.266;2023-02-01T05:11:45;95620.16;;;1.87;100.00
10652;BME280;5374;42.742;23.266;2023-02-01T05:14:49;95612.31;;;1.87;100.00
10652;BME280;5374;42.742;23.266;2023-02-01T05:17:37;95610.31;;;1.89;100.00
10652;BME280;5374;42.742;23.266;2023-02-01T05:20:27;95614.78;;;1.95;100.00
10652;BME280;5374;42.742;23.266;2023-02-01T05:23:14;95599.28;;;1.94;100.00
10652;BME280;5374;42.742;23.266;2023-02-01T05:26:01;95603.75;;;2.06;100.00
10652;BME280;5374;42.742;23.266;2023-02-01T05:28:48;95606.19;;;2.08;100.00
10652;BME280;5374;42.742;23.266;2023-02-01T05:31:36;95605.25;;;2.16;100.00
10652;BME280;5374;42.742;23.266;2023-02-01T05:34:23;95606.00;;;2.10;100.00
10652;BME280;5374;42.742;23.266;2023-02-01T05:37:12;95608.09;;;2.27;100.00
10652;BME280;5374;42.742;23.266;2023-02-01T05:39:59;95607.28;;;2.27;100.00
10652;BME280;5374;42.742;23.266;2023-02-01T05:42:46;95602.84;;;2.21;100.00
10652;BME280;5374;42.742;23.266;2023-02-01T05:45:33;95615.63;;;2.37;100.00
10652;BME280;5374;42.742;23.266;2023-02-01T05:48:20;95612.00;;;2.38;100.00
10652;BME280;5374;42.742;23.266;2023-02-01T05:51:08;95608.63;;;2.44;100.00
10652;BME280;5374;42.742;23.266;2023-02-01T05:53:56;95590.19;;;2.31;100.00
10652;BME280;5374;42.742;23.266;2023-02-01T05:56:43;95620.31;;;2.48;100.00
10652;BME280;5374;42.742;23.266;2023-02-01T05:59:31;95623.16;;;2.47;100.00
10652;BME280;5374;42.742;23.266;2023-02-01T06:02:18;95623.72;;;2.42;100.00
10652;BME280;5374;42.742;23.266;2023-02-01T06:05:09;95615.00;;;2.35;100.00
10652;BME280;5374;42.742;23.266;2023-02-01T06:07:56;95612.25;;;2.50;100.00
10652;BME280;5374;42.742;23.266;2023-02-01T06:10:45;95623.94;;;2.47;100.00
10652;BME280;5374;42.742;23.266;2023-02-01T06:13:32;95623.16;;;2.47;100.00
10652;BME280;5374;42.742;23.266;2023-02-01T06:16:20;95623.38;;;2.58;100.00
10652;BME280;5374;42.742;23.266;2023-02-01T06:19:07;95633.66;;;2.60;100.00
10652;BME280;5374;42.742;23.266;2023-02-01T06:21:54;95632.44;;;2.56;100.00
10652;BME280;5374;42.742;23.266;2023-02-01T06:24:42;95635.72;;;2.64;100.00
10652;BME280;5374;42.742;23.266;2023-02-01T06:27:31;95606.44;;;2.54;100.00
10652;BME280;5374;42.742;23.266;2023-02-01T06:30:18;95627.84;;;2.64;100.00
10652;BME280;5374;42.742;23.266;2023-02-01T06:33:05;95613.53;;;2.67;100.00
10652;BME280;5374;42.742;23.266;2023-02-01T06:35:57;95614.13;;;2.62;100.00
10652;BME280;5374;42.742;23.266;2023-02-01T06:38:44;95615.94;;;2.62;100.00
10652;BME280;5374;42.742;23.266;2023-02-01T06:41:32;95628.63;;;2.58;100.00
10652;BME280;5374;42.742;23.266;2023-02-01T06:44:21;95630.69;;;2.69;100.00
10652;BME280;5374;42.742;23.266;2023-02-01T06:47:09;95637.94;;;2.67;100.00
10652;BME280;5374;42.742;23.266;2023-02-01T06:49:56;95624.00;;;2.60;100.00
10652;BME280;5374;42.742;23.266;2023-02-01T06:52:43;95650.88;;;2.75;100.00
10652;BME280;5374;42.742;23.266;2023-02-01T06:55:32;95652.34;;;2.85;100.00
10652;BME280;5374;42.742;23.266;2023-02-01T06:58:19;95639.03;;;2.86;100.00
10652;BME280;5374;42.742;23.266;2023-02-01T07:01:08;95614.78;;;2.78;100.00
10652;BME280;5374;42.742;23.266;2023-02-01T07:03:56;95652.75;;;2.95;100.00
10652;BME280;5374;42.742;23.266;2023-02-01T07:06:43;95675.81;;;3.06;100.00
10652;BME280;5374;42.742;23.266;2023-02-01T07:09:30;95668.56;;;3.08;100.00
10652;BME280;5374;42.742;23.266;2023-02-01T07:12:19;95667.31;;;3.04;100.00
10652;BME280;5374;42.742;23.266;2023-02-01T07:15:07;95673.63;;;3.16;100.00
10652;BME280;5374;42.742;23.266;2023-02-01T07:17:55;95669.59;;;3.20;100.00
10652;BME280;5374;42.742;23.266;2023-02-01T07:20:43;95679.09;;;3.28;100.00
10652;BME280;5374;42.742;23.266;2023-02-01T07:23:30;95695.25;;;3.31;100.00
10652;BME280;5374;42.742;23.266;2023-02-01T07:26:18;95665.97;;;3.28;100.00
10652;BME280;5374;42.742;23.266;2023-02-01T07:29:05;95680.16;;;3.47;100.00
10652;BME280;5374;42.742;23.266;2023-02-01T07:31:52;95690.66;;;3.53;100.00
10652;BME280;5374;42.742;23.266;2023-02-01T07:34:41;95692.47;;;3.53;100.00
10652;BME280;5374;42.742;23.266;2023-02-01T07:37:28;95694.94;;;3.61;100.00
10652;BME280;5374;42.742;23.266;2023-02-01T07:40:15;95706.84;;;3.70;100.00
10652;BME280;5374;42.742;23.266;2023-02-01T07:43:03;95697.75;;;3.72;100.00
10652;BME280;5374;42.742;23.266;2023-02-01T07:45:54;95690.06;;;3.71;100.00
10652;BME280;5374;42.742;23.266;2023-02-01T07:48:41;95684.81;;;3.71;100.00
10652;BME280;5374;42.742;23.266;2023-02-01T07:51:30;95686.84;;;3.69;100.00
10652;BME280;5374;42.742;23.266;2023-02-01T07:54:17;95715.34;;;3.85;100.00
10652;BME280;5374;42.742;23.266;2023-02-01T07:57:04;95712.31;;;3.88;100.00
10652;BME280;5374;42.742;23.266;2023-02-01T07:59:52;95684.63;;;3.66;100.00
10652;BME280;5374;42.742;23.266;2023-02-01T08:03:03;95713.50;;;3.86;100.00
10652;BME280;5374;42.742;23.266;2023-02-01T08:05:53;95671.28;;;3.67;100.00
10652;BME280;5374;42.742;23.266;2023-02-01T08:08:42;95689.69;;;3.87;100.00
10652;BME280;5374;42.742;23.266;2023-02-01T08:11:31;95704.25;;;4.03;100.00
10652;BME280;5374;42.742;23.266;2023-02-01T08:14:18;95677.97;;;3.96;100.00
10652;BME280;5374;42.742;23.266;2023-02-01T08:17:05;95693.13;;;4.27;100.00
10652;BME280;5374;42.742;23.266;2023-02-01T08:19:52;95684.81;;;4.30;100.00
10652;BME280;5374;42.742;23.266;2023-02-01T08:22:39;95704.63;;;4.39;100.00
10652;BME280;5374;42.742;23.266;2023-02-01T08:25:28;95706.22;;;4.60;100.00
10652;BME280;5374;42.742;23.266;2023-02-01T08:28:15;95710.66;;;4.66;100.00
10652;BME280;5374;42.742;23.266;2023-02-01T08:31:07;95697.69;;;4.65;100.00
10652;BME280;5374;42.742;23.266;2023-02-01T08:33:56;95691.44;;;4.66;100.00
10652;BME280;5374;42.742;23.266;2023-02-01T08:36:44;95712.03;;;4.82;100.00
10652;BME280;5374;42.742;23.266;2023-02-01T08:39:32;95675.25;;;4.62;100.00
10652;BME280;5374;42.742;23.266;2023-02-01T08:42:20;95710.94;;;5.03;100.00
10652;BME280;5374;42.742;23.266;2023-02-01T08:45:26;95698.38;;;5.05;100.00
10652;BME280;5374;42.742;23.266;2023-02-01T08:48:14;95716.47;;;5.39;100.00
10652;BME280;5374;42.742;23.266;2023-02-01T08:51:02;95688.47;;;5.76;100.00
10652;BME280;5374;42.742;23.266;2023-02-01T08:53:50;95711.03;;;6.72;100.00
10652;BME280;5374;42.742;23.266;2023-02-01T08:56:38;95694.03;;;7.23;100.00
10652;BME280;5374;42.742;23.266;2023-02-01T08:59:27;95711.84;;;7.87;93.99
10652;BME280;5374;42.742;23.266;2023-02-01T09:02:15;95724.69;;;8.25;91.36
10652;BME280;5374;42.742;23.266;2023-02-01T09:05:03;95718.44;;;8.73;89.26
10652;BME280;5374;42.742;23.266;2023-02-01T09:07:50;95658.56;;;8.60;88.05
10652;BME280;5374;42.742;23.266;2023-02-01T09:10:37;95730.09;;;9.35;87.38
10652;BME280;5374;42.742;23.266;2023-02-01T09:13:25;95729.78;;;9.20;84.23
10652;BME280;5374;42.742;23.266;2023-02-01T09:16:13;95736.13;;;9.07;86.78
10652;BME280;5374;42.742;23.266;2023-02-01T09:19:01;95709.25;;;9.27;85.83
10652;BME280;5374;42.742;23.266;2023-02-01T09:21:48;95722.78;;;9.54;85.32
10652;BME280;5374;42.742;23.266;2023-02-01T09:24:35;95734.75;;;9.56;84.53
10652;BME280;5374;42.742;23.266;2023-02-01T09:27:23;95735.44;;;9.64;50.62
10652;BME280;5374;42.742;23.266;2023-02-01T09:30:11;95741.47;;;9.47;50.29
10652;BME280;5374;42.742;23.266;2023-02-01T09:32:59;95728.06;;;9.25;50.05
10652;BME280;5374;42.742;23.266;2023-02-01T09:35:46;95735.31;;;9.18;49.91
10652;BME280;5374;42.742;23.266;2023-02-01T09:38:34;95702.81;;;9.23;50.22
10652;BME280;5374;42.742;23.266;2023-02-01T09:41:34;95700.69;;;9.48;49.77
10652;BME280;5374;42.742;23.266;2023-02-01T09:44:42;95657.63;;;9.58;49.36
10652;BME280;5374;42.742;23.266;2023-02-01T09:47:32;95708.44;;;10.12;47.95
10652;BME280;5374;42.742;23.266;2023-02-01T09:50:24;95706.41;;;10.02;47.80
10652;BME280;5374;42.742;23.266;2023-02-01T09:53:21;95692.19;;;9.91;48.10
10652;BME280;5374;42.742;23.266;2023-02-01T09:56:14;95660.16;;;9.81;47.12
10652;BME280;5374;42.742;23.266;2023-02-01T09:59:13;95695.69;;;10.25;47.87
10652;BME280;5374;42.742;23.266;2023-02-01T10:02:11;95690.25;;;10.32;47.06
10652;BME280;5374;42.742;23.266;2023-02-01T10:05:00;95699.72;;;10.45;46.51
10652;BME280;5374;42.742;23.266;2023-02-01T10:07:58;95695.44;;;10.44;46.13
10652;BME280;5374;42.742;23.266;2023-02-01T10:10:49;95692.56;;;10.28;46.26
10652;BME280;5374;42.742;23.266;2023-02-01T10:13:50;95690.75;;;10.17;46.44
10652;BME280;5374;42.742;23.266;2023-02-01T10:16:49;95690.16;;;10.27;46.19
10652;BME280;5374;42.742;23.266;2023-02-01T10:19:46;95683.84;;;10.16;45.37
10652;BME280;5374;42.742;23.266;2023-02-01T10:22:40;95664.69;;;9.98;47.38
10652;BME280;5374;42.742;23.266;2023-02-01T10:25:36;95667.19;;;10.04;46.89
10652;BME280;5374;42.742;23.266;2023-02-01T10:28:24;95666.56;;;10.14;45.91
10652;BME280;5374;42.742;23.266;2023-02-01T10:31:12;95618.41;;;9.88;46.77
10652;BME280;5374;42.742;23.266;2023-02-01T10:34:01;95665.63;;;10.37;45.31
10652;BME280;5374;42.742;23.266;2023-02-01T10:36:57;95675.91;;;10.50;44.91
10652;BME280;5374;42.742;23.266;2023-02-01T10:39:47;95640.78;;;10.26;45.54
10652;BME280;5374;42.742;23.266;2023-02-01T10:42:36;95665.38;;;10.38;45.75
10652;BME280;5374;42.742;23.266;2023-02-01T10:45:26;95641.31;;;10.45;45.99
10652;BME280;5374;42.742;23.266;2023-02-01T10:48:14;95662.03;;;10.65;45.34
10652;BME280;5374;42.742;23.266;2023-02-01T10:51:06;95655.06;;;10.58;46.15
10652;BME280;5374;42.742;23.266;2023-02-01T10:53:58;95630.88;;;10.38;46.02
10652;BME280;5374;42.742;23.266;2023-02-01T10:56:51;95644.06;;;10.33;43.96
10652;BME280;5374;42.742;23.266;2023-02-01T10:59:40;95631.50;;;10.12;44.00
10652;BME280;5374;42.742;23.266;2023-02-01T11:02:31;95646.31;;;10.24;45.29
10652;BME280;5374;42.742;23.266;2023-02-01T11:05:19;95650.22;;;10.05;45.66
10652;BME280;5374;42.742;23.266;2023-02-01T11:08:14;95626.97;;;9.79;43.99
10652;BME280;5374;42.742;23.266;2023-02-01T11:11:03;95631.16;;;9.75;45.66
10652;BME280;5374;42.742;23.266;2023-02-01T11:13:54;95631.56;;;9.67;45.61
10652;BME280;5374;42.742;23.266;2023-02-01T11:16:48;95632.25;;;9.45;46.78
10652;BME280;5374;42.742;23.266;2023-02-01T11:19:35;95617.44;;;9.49;46.52
10652;BME280;5374;42.742;23.266;2023-02-01T11:22:25;95600.66;;;9.44;46.25
10652;BME280;5374;42.742;23.266;2023-02-01T11:25:16;95601.06;;;9.52;46.65
10652;BME280;5374;42.742;23.266;2023-02-01T11:28:04;95602.97;;;9.40;46.99
10652;BME280;5374;42.742;23.266;2023-02-01T11:30:54;95577.53;;;9.11;47.24
10652;BME280;5374;42.742;23.266;2023-02-01T11:33:48;95603.59;;;9.31;46.64
10652;BME280;5374;42.742;23.266;2023-02-01T11:36:37;95609.22;;;9.34;47.88
10652;BME280;5374;42.742;23.266;2023-02-01T11:39:28;95606.06;;;9.20;47.46
10652;BME280;5374;42.742;23.266;2023-02-01T11:42:17;95581.84;;;9.00;47.71
10652;BME280;5374;42.742;23.266;2023-02-01T11:45:18;95601.72;;;9.14;47.54
10652;BME280;5374;42.742;23.266;2023-02-01T11:48:09;95566.66;;;8.96;48.08
10652;BME280;5374;42.742;23.266;2023-02-01T11:51:07;95597.00;;;9.05;48.02
10652;BME280;5374;42.742;23.266;2023-02-01T11:54:18;95541.28;;;8.71;47.68
10652;BME280;5374;42.742;23.266;2023-02-01T11:57:19;95574.22;;;8.75;47.91
10652;BME280;5374;42.742;23.266;2023-02-01T12:00:30;95577.50;;;8.82;47.39
10652;BME280;5374;42.742;23.266;2023-02-01T12:06:54;95586.69;;;8.91;48.30
10652;BME280;5374;42.742;23.266;2023-02-01T12:10:01;95586.56;;;8.98;48.13
10652;BME280;5374;42.742;23.266;2023-02-01T12:12:57;95572.06;;;9.01;48.95
10652;BME280;5374;42.742;23.266;2023-02-01T12:15:58;95532.50;;;8.82;47.96
10652;BME280;5374;42.742;23.266;2023-02-01T12:19:08;95557.00;;;8.89;47.72
10652;BME280;5374;42.742;23.266;2023-02-01T12:22:20;95574.72;;;8.89;48.10
10652;BME280;5374;42.742;23.266;2023-02-01T12:25:21;95563.63;;;8.75;48.29
10652;BME280;5374;42.742;23.266;2023-02-01T12:28:38;95574.44;;;8.74;48.51
10652;BME280;5374;42.742;23.266;2023-02-01T12:31:46;95570.91;;;8.56;49.07
10652;BME280;5374;42.742;23.266;2023-02-01T12:34:53;95583.78;;;8.65;48.85
10652;BME280;5374;42.742;23.266;2023-02-01T12:37:54;95587.47;;;8.64;48.66
10652;BME280;5374;42.742;23.266;2023-02-01T12:40:57;95566.56;;;8.39;49.17
10652;BME280;5374;42.742;23.266;2023-02-01T12:43:52;95585.19;;;8.44;48.99
10652;BME280;5374;42.742;23.266;2023-02-01T12:46:43;95582.06;;;8.58;49.22
10652;BME280;5374;42.742;23.266;2023-02-01T12:49:42;95584.00;;;8.75;48.70
10652;BME280;5374;42.742;23.266;2023-02-01T12:52:36;95581.53;;;8.85;49.11
10652;BME280;5374;42.742;23.266;2023-02-01T12:55:34;95565.66;;;8.85;48.25
10652;BME280;5374;42.742;23.266;2023-02-01T12:58:24;95512.47;;;8.46;48.14
10652;BME280;5374;42.742;23.266;2023-02-01T13:01:15;95581.69;;;9.07;48.45
10652;BME280;5374;42.742;23.266;2023-02-01T13:04:10;95584.66;;;9.10;47.92
10652;BME280;5374;42.742;23.266;2023-02-01T13:07:05;95578.56;;;9.10;47.15
10652;BME280;5374;42.742;23.266;2023-02-01T13:09:58;95570.84;;;9.08;47.14
10652;BME280;5374;42.742;23.266;2023-02-01T13:12:56;95580.56;;;9.03;47.68
10652;BME280;5374;42.742;23.266;2023-02-01T13:15:48;95575.31;;;8.91;47.87
10652;BME280;5374;42.742;23.266;2023-02-01T13:18:39;95578.00;;;8.79;47.69
10652;BME280;5374;42.742;23.266;2023-02-01T13:21:30;95570.41;;;8.71;47.67
10652;BME280;5374;42.742;23.266;2023-02-01T13:24:27;95554.72;;;8.41;48.23
10652;BME280;5374;42.742;23.266;2023-02-01T13:27:17;95570.56;;;8.53;48.32
10652;BME280;5374;42.742;23.266;2023-02-01T13:30:12;95538.16;;;8.11;48.41
10652;BME280;5374;42.742;23.266;2023-02-01T13:33:33;95570.22;;;8.26;48.46
10652;BME280;5374;42.742;23.266;2023-02-01T13:36:45;95573.22;;;8.18;49.06
10652;BME280;5374;42.742;23.266;2023-02-01T13:39:47;95569.53;;;8.19;50.03
10652;BME280;5374;42.742;23.266;2023-02-01T13:42:44;95529.44;;;7.87;49.70
10652;BME280;5374;42.742;23.266;2023-02-01T13:45:41;95565.63;;;8.21;50.16
10652;BME280;5374;42.742;23.266;2023-02-01T13:48:33;95565.19;;;8.36;49.68
10652;BME280;5374;42.742;23.266;2023-02-01T13:51:36;95568.63;;;8.37;49.12
10652;BME280;5374;42.742;23.266;2023-02-01T13:54:30;95559.09;;;8.36;48.50
10652;BME280;5374;42.742;23.266;2023-02-01T13:57:35;95560.69;;;8.37;49.03
10652;BME280;5374;42.742;23.266;2023-02-01T14:00:25;95555.16;;;8.50;48.83
10652;BME280;5374;42.742;23.266;2023-02-01T14:03:19;95572.72;;;8.68;48.39
10652;BME280;5374;42.742;23.266;2023-02-01T14:06:35;95534.00;;;8.38;49.21
10652;BME280;5374;42.742;23.266;2023-02-01T14:09:36;95575.81;;;8.76;48.64
10652;BME280;5374;42.742;23.266;2023-02-01T14:12:45;95567.72;;;8.83;47.84
10652;BME280;5374;42.742;23.266;2023-02-01T14:15:33;95552.81;;;8.65;48.49
10652;BME280;5374;42.742;23.266;2023-02-01T14:18:54;95557.28;;;8.76;48.49
10652;BME280;5374;42.742;23.266;2023-02-01T14:21:49;95559.53;;;8.84;48.21
10652;BME280;5374;42.742;23.266;2023-02-01T14:24:39;95540.94;;;8.68;48.82
10652;BME280;5374;42.742;23.266;2023-02-01T14:27:30;95551.06;;;8.71;49.23
10652;BME280;5374;42.742;23.266;2023-02-01T14:30:23;95545.50;;;8.55;48.83
10652;BME280;5374;42.742;23.266;2023-02-01T14:33:20;95537.09;;;8.47;48.60
10652;BME280;5374;42.742;23.266;2023-02-01T14:36:13;95514.69;;;8.38;48.76
10652;BME280;5374;42.742;23.266;2023-02-01T14:39:01;95535.53;;;8.34;48.27
10652;BME280;5374;42.742;23.266;2023-02-01T14:41:53;95540.66;;;8.17;48.48
10652;BME280;5374;42.742;23.266;2023-02-01T14:44:42;95540.09;;;7.92;49.19
10652;BME280;5374;42.742;23.266;2023-02-01T14:47:31;95548.72;;;7.76;49.66
10652;BME280;5374;42.742;23.266;2023-02-01T14:50:27;95547.00;;;7.58;50.98
10652;BME280;5374;42.742;23.266;2023-02-01T14:53:23;95548.84;;;7.58;51.63
10652;BME280;5374;42.742;23.266;2023-02-01T14:56:16;95542.63;;;7.52;51.47
10652;BME280;5374;42.742;23.266;2023-02-01T14:59:08;95554.09;;;7.46;51.78
10652;BME280;5374;42.742;23.266;2023-02-01T15:01:58;95554.06;;;7.34;52.47
10652;BME280;5374;42.742;23.266;2023-02-01T15:04:54;95552.69;;;7.32;52.80
10652;BME280;5374;42.742;23.266;2023-02-01T15:07:41;95552.78;;;7.25;52.90
10652;BME280;5374;42.742;23.266;2023-02-01T15:10:31;95534.63;;;7.17;53.27
10652;BME280;5374;42.742;23.266;2023-02-01T15:13:21;95548.78;;;7.23;53.17
10652;BME280;5374;42.742;23.266;2023-02-01T15:16:13;95547.38;;;7.20;52.97
10652;BME280;5374;42.742;23.266;2023-02-01T15:19:08;95546.44;;;7.14;53.10
10652;BME280;5374;42.742;23.266;2023-02-01T15:21:59;95516.81;;;6.82;52.62
10652;BME280;5374;42.742;23.266;2023-02-01T15:24:54;95505.09;;;6.78;53.55